Time;durP1;ratioP1;P1;durP2;ratioP2;P2;SDS_P1;SDS_P2;PMS_P1;PMS_P2;Temp;Humidity;BMP_temperature;BMP_pressure;BME280_temperature;BME280_humidity;BME280_pressure;Samples;Min_cycle;Max_cycle;Signal;HPM_P1;HPM_P2
2022/01/31 00:00:10;;;;;;;;;;;;;;;21.09;40.66;101583.78;7292341;19;153865;-50
2022/01/31 00:02:37;;;;;;;;;;;;;;;21.11;40.91;101573.94;7283491;19;152972;-51
2022/01/31 00:05:05;;;;;;;;;;;;;;;21.13;40.35;101579.25;7286093;19;153371;-50
2022/01/31 00:07:32;;;;;;;;;;;;;;;21.14;40.41;101581.78;7283667;19;151990;-50
2022/01/31 00:09:58;;;;;;;;;;;;;;;21.15;40.59;101575.03;7286571;19;154947;-50
2022/01/31 00:12:30;;;;;;;;;;;;;;;21.17;40.32;101569.09;7282959;19;152089;-50
2022/01/31 00:15:02;;;;;;;;;;;;;;;21.19;40.65;101589.31;7286642;19;151858;-50
2022/01/31 00:17:29;;;;;;;;;;;;;;;21.18;40.84;101594.09;7279047;19;154175;-51
2022/01/31 00:19:55;;;;;;;;;;;;;;;21.19;40.72;101600.56;7285047;19;152397;-50
2022/01/31 00:22:22;;;;;;;;;;;;;;;21.19;40.68;101590.16;7292257;19;151861;-49
2022/01/31 00:24:49;;;;;;;;;;;;;;;21.20;41.09;101591.00;7283611;19;153653;-51
2022/01/31 00:27:16;;;;;;;;;;;;;;;21.20;40.90;101593.81;7281900;19;152101;-50
2022/01/31 00:29:43;;;;;;;;;;;;;;;21.19;41.23;101586.50;7284910;19;152886;-50
2022/01/31 00:32:09;;;;;;;;;;;;;;;21.20;41.25;101605.06;7281223;19;153817;-50
2022/01/31 00:34:36;;;;;;;;;;;;;;;21.19;41.22;101604.22;7284939;19;151692;-50
2022/01/31 00:37:03;;;;;;;;;;;;;;;21.17;40.96;101603.66;7281906;19;153310;-51
2022/01/31 00:39:33;;;;;;;;;;;;;;;21.15;41.03;101608.75;7283735;19;152772;-50
2022/01/31 00:42:02;;;;;;;;;;;;;;;21.14;40.69;101611.84;7284535;19;151729;-50
2022/01/31 00:44:39;;;;;;;;;;;;;;;21.13;40.93;101607.38;7289227;19;153339;-50
2022/01/31 00:47:17;;;;;;;;;;;;;;;21.09;40.50;101601.47;7281846;19;152318;-50
2022/01/31 00:49:49;;;;;;;;;;;;;;;21.08;40.82;101601.75;7283291;19;153136;-50
2022/01/31 00:52:16;;;;;;;;;;;;;;;21.06;40.83;101609.66;7282866;19;153867;-50
2022/01/31 00:54:43;;;;;;;;;;;;;;;21.07;41.08;101603.75;7282632;19;152319;-50
2022/01/31 00:57:10;;;;;;;;;;;;;;;21.10;40.98;101608.78;7280701;19;152695;-50
2022/01/31 00:59:36;;;;;;;;;;;;;;;21.07;41.09;101598.13;7282023;19;153464;-50
2022/01/31 01:02:04;;;;;;;;;;;;;;;21.04;40.75;101587.47;7282533;19;151898;-50
2022/01/31 01:04:33;;;;;;;;;;;;;;;21.01;41.02;101584.44;7281314;19;153044;-50
2022/01/31 01:07:00;;;;;;;;;;;;;;;21.00;40.52;101599.59;7288371;19;155936;-50
2022/01/31 01:09:26;;;;;;;;;;;;;;;20.99;40.47;101583.88;7284042;19;153287;-50
2022/01/31 01:11:53;;;;;;;;;;;;;;;20.95;40.70;101565.94;7278054;19;153721;-50
2022/01/31 01:14:20;;;;;;;;;;;;;;;20.93;40.41;101556.97;7283489;19;152226;-50
2022/01/31 01:16:46;;;;;;;;;;;;;;;20.91;40.77;101539.56;7282459;19;152769;-50
2022/01/31 01:19:13;;;;;;;;;;;;;;;20.88;40.67;101549.44;7282849;19;153803;-50
2022/01/31 01:21:40;;;;;;;;;;;;;;;20.86;40.57;101571.34;7283269;19;151595;-49
2022/01/31 01:24:07;;;;;;;;;;;;;;;20.83;40.54;101578.41;7281423;19;153520;-49
2022/01/31 01:26:34;;;;;;;;;;;;;;;20.81;41.11;101575.06;7279173;19;155087;-50
2022/01/31 01:29:00;;;;;;;;;;;;;;;20.78;40.96;101572.84;7292656;19;152101;-49
2022/01/31 01:31:27;;;;;;;;;;;;;;;20.75;40.83;101576.25;7286032;19;154449;-50
2022/01/31 01:33:54;;;;;;;;;;;;;;;20.73;41.12;101550.44;7289089;19;151890;-50
2022/01/31 01:36:21;;;;;;;;;;;;;;;20.71;41.11;101526.59;7290679;19;152851;-50
2022/01/31 01:38:48;;;;;;;;;;;;;;;20.68;40.79;101533.63;7286434;19;153889;-50
2022/01/31 01:41:15;;;;;;;;;;;;;;;20.65;40.81;101525.78;7288960;19;151825;-49
2022/01/31 01:43:41;;;;;;;;;;;;;;;20.63;41.00;101547.69;7288233;19;153127;-50
2022/01/31 01:46:09;;;;;;;;;;;;;;;20.61;41.10;101547.19;7288026;19;154328;-50
2022/01/31 01:48:35;;;;;;;;;;;;;;;20.57;41.09;101551.72;7295740;19;151909;-50
2022/01/31 01:51:02;;;;;;;;;;;;;;;20.54;41.09;101566.31;7285796;19;153982;-50
2022/01/31 01:53:30;;;;;;;;;;;;;;;20.51;40.94;101568.88;7287655;19;151600;-51
2022/01/31 01:55:57;;;;;;;;;;;;;;;20.49;41.09;101577.56;7290101;19;153554;-50
2022/01/31 01:58:24;;;;;;;;;;;;;;;20.45;41.08;101586.88;7288407;19;153588;-51
2022/01/31 02:03:30;;;;;;;;;;;;;;;20.39;41.12;101586.94;7288385;19;153250;-49
2022/01/31 02:05:58;;;;;;;;;;;;;;;20.38;41.05;101601.25;7286086;19;154280;-50
2022/01/31 02:08:27;;;;;;;;;;;;;;;20.36;41.51;101611.91;7285066;19;151652;-49
2022/01/31 02:10:54;;;;;;;;;;;;;;;20.33;41.19;101615.31;7296462;19;153154;-50
2022/01/31 02:13:21;;;;;;;;;;;;;;;20.32;41.27;101619.25;7285346;19;152400;-50
2022/01/31 02:15:49;;;;;;;;;;;;;;;20.28;41.67;101598.47;7289393;19;153432;-50
2022/01/31 02:18:18;;;;;;;;;;;;;;;20.25;41.42;101602.72;7284291;19;152211;-50
2022/01/31 02:20:45;;;;;;;;;;;;;;;20.23;41.50;101606.94;7288060;19;152236;-50
2022/01/31 02:23:13;;;;;;;;;;;;;;;20.21;41.71;101596.00;7288549;19;151965;-51
2022/01/31 02:25:49;;;;;;;;;;;;;;;20.19;41.34;101617.91;7284956;19;154138;-50
2022/01/31 02:28:15;;;;;;;;;;;;;;;20.18;41.39;101616.22;7286642;19;152102;-50
2022/01/31 02:30:42;;;;;;;;;;;;;;;20.14;41.49;101626.34;7287219;19;153214;-49
2022/01/31 02:33:09;;;;;;;;;;;;;;;20.13;41.35;101612.59;7293894;19;152423;-49
2022/01/31 02:35:36;;;;;;;;;;;;;;;20.12;41.65;101622.16;7288373;19;152467;-50
2022/01/31 02:38:03;;;;;;;;;;;;;;;20.07;41.56;101614.63;7286594;19;152411;-50
2022/01/31 02:40:29;;;;;;;;;;;;;;;20.05;41.33;101618.81;7286844;19;153047;-50
2022/01/31 02:42:56;;;;;;;;;;;;;;;20.02;41.27;101614.63;7284199;19;153354;-50
2022/01/31 02:45:23;;;;;;;;;;;;;;;20.00;41.16;101628.09;7287981;19;152496;-50
2022/01/31 02:47:55;;;;;;;;;;;;;;;19.99;41.26;101609.59;7286997;19;151992;-49
2022/01/31 02:50:22;;;;;;;;;;;;;;;19.95;41.40;101614.94;7288405;19;153379;-49
2022/01/31 02:52:59;;;;;;;;;;;;;;;19.93;41.27;101610.75;7286280;19;154272;-50
2022/01/31 02:55:26;;;;;;;;;;;;;;;19.91;41.30;101615.81;7295819;19;151855;-49
2022/01/31 02:57:52;;;;;;;;;;;;;;;19.87;41.47;101621.16;7284204;19;152373;-50
2022/01/31 03:00:19;;;;;;;;;;;;;;;19.85;41.11;101631.81;7286878;19;151830;-50
2022/01/31 03:02:46;;;;;;;;;;;;;;;19.85;41.66;101623.41;7287109;19;151855;-50
2022/01/31 03:05:13;;;;;;;;;;;;;;;19.82;41.67;101618.38;7286246;19;154001;-50
2022/01/31 03:07:39;;;;;;;;;;;;;;;19.80;41.95;101623.44;7284168;19;151812;-50
2022/01/31 03:10:06;;;;;;;;;;;;;;;19.79;41.74;101648.97;7286502;19;152738;-50
2022/01/31 03:12:33;;;;;;;;;;;;;;;19.77;41.89;101665.22;7283569;19;153266;-50
2022/01/31 03:15:00;;;;;;;;;;;;;;;19.73;41.75;101638.88;7287724;19;151820;-50
2022/01/31 03:17:26;;;;;;;;;;;;;;;19.73;42.07;101645.34;7294105;19;152791;-50
2022/01/31 03:19:54;;;;;;;;;;;;;;;19.70;42.24;101648.72;7286587;19;151763;-50
2022/01/31 03:22:22;;;;;;;;;;;;;;;19.67;42.38;101645.66;7285575;19;152499;-50
2022/01/31 03:24:49;;;;;;;;;;;;;;;19.66;42.44;101643.97;7286239;19;153757;-50
2022/01/31 03:27:16;;;;;;;;;;;;;;;19.65;42.68;101653.50;7281369;19;151813;-50
2022/01/31 03:29:43;;;;;;;;;;;;;;;19.62;42.53;101620.44;7287120;19;153375;-50
2022/01/31 03:32:09;;;;;;;;;;;;;;;19.60;42.73;101623.50;7284905;19;153388;-50
2022/01/31 03:34:36;;;;;;;;;;;;;;;19.59;42.47;101618.19;7286487;19;151912;-49
2022/01/31 03:37:03;;;;;;;;;;;;;;;19.56;42.48;101614.00;7285276;19;153220;-50
2022/01/31 03:39:29;;;;;;;;;;;;;;;19.54;42.73;101608.66;7293341;19;153770;-50
2022/01/31 03:41:56;;;;;;;;;;;;;;;19.52;42.89;101598.88;7287030;19;153164;-49
2022/01/31 03:44:23;;;;;;;;;;;;;;;19.50;42.56;101595.50;7285991;19;153944;-50
2022/01/31 03:46:50;;;;;;;;;;;;;;;19.50;42.97;101606.72;7283399;19;152160;-50
2022/01/31 03:49:19;;;;;;;;;;;;;;;19.46;43.08;101614.88;7286484;19;153539;-51
2022/01/31 03:51:45;;;;;;;;;;;;;;;19.46;43.15;101622.44;7285687;19;154133;-50
2022/01/31 03:54:12;;;;;;;;;;;;;;;19.43;42.91;101635.06;7286067;19;152358;-50
2022/01/31 03:56:40;;;;;;;;;;;;;;;19.42;43.02;101644.56;7285488;19;153237;-51
2022/01/31 03:59:08;;;;;;;;;;;;;;;19.42;42.89;101644.56;7291799;19;154426;-50
2022/01/31 04:01:35;;;;;;;;;;;;;;;19.40;43.22;101641.19;7286922;19;153243;-51
2022/01/31 04:04:02;;;;;;;;;;;;;;;19.37;43.04;101636.16;7285324;19;153308;-51
2022/01/31 04:06:28;;;;;;;;;;;;;;;19.37;43.25;101624.13;7286598;19;151787;-50
2022/01/31 04:08:55;;;;;;;;;;;;;;;19.35;43.09;101626.38;7285636;19;153801;-50
2022/01/31 04:11:22;;;;;;;;;;;;;;;19.33;42.85;101642.63;7284652;19;154323;-50
2022/01/31 04:13:48;;;;;;;;;;;;;;;19.30;42.71;101638.44;7285608;19;152187;-50
2022/01/31 04:16:15;;;;;;;;;;;;;;;19.29;43.03;101630.31;7284336;19;153235;-50
2022/01/31 04:18:42;;;;;;;;;;;;;;;19.26;42.75;101628.88;7283638;19;153734;-50
2022/01/31 04:21:09;;;;;;;;;;;;;;;19.23;42.98;101626.66;7291154;19;151883;-51
2022/01/31 04:23:36;;;;;;;;;;;;;;;19.22;42.63;101619.38;7284074;19;153355;-50
2022/01/31 04:26:08;;;;;;;;;;;;;;;19.21;42.77;101614.91;7285003;19;151891;-50
2022/01/31 04:28:43;;;;;;;;;;;;;;;19.20;42.83;101632.00;7281264;19;154144;-50
2022/01/31 04:33:47;;;;;;;;;;;;;;;19.17;43.04;101629.78;7281977;19;151574;-51
2022/01/31 04:36:15;;;;;;;;;;;;;;;19.15;42.80;101623.59;7283385;19;153354;-49
2022/01/31 04:38:42;;;;;;;;;;;;;;;19.14;42.96;101631.16;7282146;19;153410;-50
2022/01/31 04:41:09;;;;;;;;;;;;;;;19.13;42.74;101620.22;7283672;19;151998;-50
2022/01/31 04:43:36;;;;;;;;;;;;;;;19.10;42.77;101616.03;7288530;19;152724;-50
2022/01/31 04:46:05;;;;;;;;;;;;;;;19.07;42.40;101600.66;7284724;19;151854;-51
2022/01/31 04:48:32;;;;;;;;;;;;;;;19.08;42.46;101621.91;7282365;19;152930;-50
2022/01/31 04:50:59;;;;;;;;;;;;;;;19.06;42.36;101610.19;7282541;19;153398;-49
2022/01/31 04:53:26;;;;;;;;;;;;;;;19.03;42.40;101607.91;7282305;19;151998;-50
2022/01/31 04:55:53;;;;;;;;;;;;;;;19.02;42.35;101606.25;7283951;19;152895;-50
2022/01/31 04:58:22;;;;;;;;;;;;;;;18.99;42.45;101606.81;7283562;19;153432;-50
2022/01/31 05:00:50;;;;;;;;;;;;;;;18.98;42.63;101607.13;7284744;19;151793;-50
2022/01/31 05:03:19;;;;;;;;;;;;;;;18.96;42.70;101635.38;7284076;19;155720;-49
2022/01/31 05:05:46;;;;;;;;;;;;;;;18.95;42.80;101628.09;7297700;19;152292;-50
2022/01/31 05:08:13;;;;;;;;;;;;;;;18.94;42.47;101634.00;7289022;19;152770;-50
2022/01/31 05:10:46;;;;;;;;;;;;;;;18.93;42.46;101651.91;7289298;19;154264;-50
2022/01/31 05:13:13;;;;;;;;;;;;;;;18.92;42.52;101665.06;7286094;19;152894;-50
2022/01/31 05:15:40;;;;;;;;;;;;;;;18.94;43.26;101706.81;7291989;19;153320;-50
2022/01/31 05:18:07;;;;;;;;;;;;;;;18.96;43.44;101697.00;7287068;19;153965;-51
2022/01/31 05:20:34;;;;;;;;;;;;;;;18.98;43.48;101703.16;7290266;19;151491;-50
2022/01/31 05:23:00;;;;;;;;;;;;;;;19.00;43.76;101698.09;7290857;19;153234;-50
2022/01/31 05:25:27;;;;;;;;;;;;;;;19.03;43.57;101686.34;7287822;19;153709;-50
2022/01/31 05:27:54;;;;;;;;;;;;;;;19.08;44.04;101691.09;7295211;19;152043;-50
2022/01/31 05:30:22;;;;;;;;;;;;;;;19.13;43.95;101693.06;7286726;19;153381;-50
2022/01/31 05:32:49;;;;;;;;;;;;;;;19.17;44.66;101678.22;7288092;19;151971;-49
2022/01/31 05:35:16;;;;;;;;;;;;;;;19.22;44.48;101661.41;7290795;19;153267;-50
2022/01/31 05:37:42;;;;;;;;;;;;;;;19.28;44.62;101651.88;7288686;19;152310;-50
2022/01/31 05:40:10;;;;;;;;;;;;;;;19.32;44.41;101644.56;7290228;19;151903;-50
2022/01/31 05:42:36;;;;;;;;;;;;;;;19.38;44.60;101632.25;7288231;19;153153;-50
2022/01/31 05:45:03;;;;;;;;;;;;;;;19.45;44.09;101652.41;7289621;19;153215;-50
2022/01/31 05:47:30;;;;;;;;;;;;;;;19.50;43.95;101644.00;7287485;19;151686;-50
2022/01/31 05:49:57;;;;;;;;;;;;;;;19.56;44.08;101630.81;7296614;19;153229;-49
2022/01/31 05:52:24;;;;;;;;;;;;;;;19.64;43.85;101632.19;7290040;19;151953;-50
2022/01/31 05:54:55;;;;;;;;;;;;;;;19.70;44.28;101625.44;7289763;19;151997;-49
2022/01/31 05:57:22;;;;;;;;;;;;;;;19.76;44.00;101649.53;7287264;19;153303;-50
2022/01/31 05:59:50;;;;;;;;;;;;;;;19.81;43.82;101655.94;7288886;19;151562;-50
2022/01/31 06:02:17;;;;;;;;;;;;;;;19.87;43.59;101652.00;7288872;19;152665;-50
2022/01/31 06:04:44;;;;;;;;;;;;;;;19.93;43.10;101664.06;7286394;19;152685;-50
2022/01/31 06:07:11;;;;;;;;;;;;;;;19.98;43.29;101648.03;7288509;19;152217;-51
2022/01/31 06:09:38;;;;;;;;;;;;;;;20.05;43.03;101669.31;7295714;19;154322;-51
2022/01/31 06:12:05;;;;;;;;;;;;;;;20.10;43.03;101650.50;7288167;19;152200;-51
2022/01/31 06:14:32;;;;;;;;;;;;;;;20.17;42.73;101661.41;7286017;19;152789;-52
2022/01/31 06:16:59;;;;;;;;;;;;;;;20.21;42.68;101666.16;7288095;19;153418;-51
2022/01/31 06:19:26;;;;;;;;;;;;;;;20.26;42.71;101679.34;7287600;19;151756;-51
2022/01/31 06:21:52;;;;;;;;;;;;;;;20.33;42.09;101688.28;7288992;19;153557;-51
2022/01/31 06:24:19;;;;;;;;;;;;;;;20.37;42.12;101690.22;7285460;19;153542;-50
2022/01/31 06:26:46;;;;;;;;;;;;;;;20.43;42.51;101677.00;7285830;19;152612;-51
2022/01/31 06:29:13;;;;;;;;;;;;;;;20.48;42.08;101696.63;7287114;19;152833;-51
2022/01/31 06:31:39;;;;;;;;;;;;;;;20.52;42.28;101696.88;7295872;19;153435;-51
2022/01/31 06:34:06;;;;;;;;;;;;;;;20.57;42.15;101689.28;7288902;19;153431;-51
2022/01/31 06:36:33;;;;;;;;;;;;;;;20.62;41.96;101703.28;7288343;19;154598;-51
2022/01/31 06:39:00;;;;;;;;;;;;;;;20.68;41.81;101702.09;7287851;19;151850;-51
2022/01/31 06:41:28;;;;;;;;;;;;;;;20.72;42.12;101693.94;7287328;19;153070;-51
2022/01/31 06:43:56;;;;;;;;;;;;;;;20.75;41.95;101698.97;7286267;19;154048;-51
2022/01/31 06:46:22;;;;;;;;;;;;;;;20.80;41.70;101701.75;7285255;19;151983;-51
2022/01/31 06:48:49;;;;;;;;;;;;;;;20.83;41.76;101716.03;7284237;19;152873;-51
2022/01/31 06:51:17;;;;;;;;;;;;;;;20.88;41.31;101726.41;7287351;19;154454;-51
2022/01/31 06:53:48;;;;;;;;;;;;;;;20.93;41.64;101726.38;7294448;19;152050;-51
2022/01/31 06:56:16;;;;;;;;;;;;;;;20.96;41.48;101737.03;7285880;19;153410;-51
2022/01/31 06:58:43;;;;;;;;;;;;;;;21.01;41.21;101733.31;7284744;19;151710;-51
2022/01/31 07:01:10;;;;;;;;;;;;;;;21.05;41.51;101740.03;7288275;19;153814;-51
2022/01/31 07:03:37;;;;;;;;;;;;;;;21.08;41.41;101747.88;7282849;19;153783;-51
2022/01/31 07:06:04;;;;;;;;;;;;;;;21.11;41.32;101750.13;7288361;19;152122;-51
2022/01/31 07:08:31;;;;;;;;;;;;;;;21.14;41.01;101750.41;7286681;19;152834;-51
2022/01/31 07:10:57;;;;;;;;;;;;;;;21.17;40.89;101760.19;7285779;19;153909;-51
2022/01/31 07:13:36;;;;;;;;;;;;;;;21.20;40.64;101763.28;7284554;19;151679;-51
2022/01/31 07:16:04;;;;;;;;;;;;;;;21.24;40.64;101755.94;7294289;19;152359;-52
2022/01/31 07:18:32;;;;;;;;;;;;;;;21.29;40.60;101772.78;7286801;19;152573;-52
2022/01/31 07:20:59;;;;;;;;;;;;;;;21.32;40.87;101779.75;7287395;19;153203;-52
2022/01/31 07:23:29;;;;;;;;;;;;;;;21.36;40.83;101780.84;7284845;19;152449;-52
2022/01/31 07:25:56;;;;;;;;;;;;;;;21.39;40.47;101797.16;7284295;19;152372;-51
2022/01/31 07:28:23;;;;;;;;;;;;;;;21.43;40.79;101798.25;7285573;19;153118;-51
2022/01/31 07:30:51;;;;;;;;;;;;;;;21.46;40.52;101808.03;7286050;19;152412;-49
2022/01/31 07:33:18;;;;;;;;;;;;;;;21.49;40.59;101818.69;7284548;19;151895;-49
2022/01/31 07:35:47;;;;;;;;;;;;;;;21.52;40.76;101837.81;7286073;19;152734;-49
2022/01/31 07:38:13;;;;;;;;;;;;;;;21.56;40.54;101865.06;7290863;19;153307;-49
2022/01/31 07:40:40;;;;;;;;;;;;;;;21.59;40.80;101849.56;7284597;19;153755;-49
2022/01/31 07:43:07;;;;;;;;;;;;;;;21.61;40.50;101856.56;7284955;19;153820;-49
2022/01/31 07:45:34;;;;;;;;;;;;;;;21.65;40.83;101851.19;7286265;19;151498;-49
2022/01/31 07:48:00;;;;;;;;;;;;;;;21.66;40.56;101822.78;7285751;19;153390;-50
2022/01/31 07:50:30;;;;;;;;;;;;;;;21.69;40.71;101824.16;7283597;19;153280;-48
2022/01/31 07:52:57;;;;;;;;;;;;;;;21.73;40.27;101826.09;7285236;19;152144;-49
2022/01/31 07:55:24;;;;;;;;;;;;;;;21.76;40.43;101815.38;7284162;19;152337;-49
2022/01/31 07:57:51;;;;;;;;;;;;;;;21.79;40.40;101823.22;7282039;19;154072;-49
2022/01/31 08:00:19;;;;;;;;;;;;;;;21.83;40.70;101825.16;7294348;19;151679;-49
2022/01/31 08:02:46;;;;;;;;;;;;;;;21.85;40.49;101836.13;7285008;19;153267;-48
2022/01/31 08:05:13;;;;;;;;;;;;;;;21.88;40.68;101836.38;7285213;19;152067;-48
2022/01/31 08:07:40;;;;;;;;;;;;;;;21.91;40.54;101849.81;7286329;19;152716;-49
2022/01/31 08:10:07;;;;;;;;;;;;;;;21.94;40.84;101851.25;7283313;19;155039;-50
2022/01/31 08:12:36;;;;;;;;;;;;;;;21.95;40.01;101859.38;7283567;19;151590;-50
2022/01/31 08:15:07;;;;;;;;;;;;;;;21.98;40.42;101860.78;7283572;19;152672;-49
2022/01/31 08:17:34;;;;;;;;;;;;;;;22.01;39.89;101863.00;7282268;19;153314;-50
2022/01/31 08:20:01;;;;;;;;;;;;;;;22.01;39.95;101885.50;7294392;19;151569;-50
2022/01/31 08:22:28;;;;;;;;;;;;;;;22.02;40.04;101890.84;7284934;19;153622;-50
2022/01/31 08:24:55;;;;;;;;;;;;;;;22.02;39.90;101890.84;7285178;19;152608;-50
2022/01/31 08:27:22;;;;;;;;;;;;;;;22.03;39.80;101898.13;7283559;19;152706;-50
2022/01/31 08:29:55;;;;;;;;;;;;;;;22.03;39.79;101902.94;7282379;19;153860;-50
2022/01/31 08:32:34;;;;;;;;;;;;;;;22.03;39.97;101900.94;7284331;19;151760;-49
2022/01/31 08:37:37;;;;;;;;;;;;;;;22.03;40.01;101915.03;7278606;19;153451;-50
2022/01/31 08:40:05;;;;;;;;;;;;;;;22.02;39.51;101918.16;7286324;19;152002;-51
2022/01/31 08:42:33;;;;;;;;;;;;;;;21.72;35.59;101922.84;7291587;19;152806;-50
2022/01/31 08:45:03;;;;;;;;;;;;;;;21.74;35.64;101940.28;7283349;19;152025;-51
2022/01/31 08:47:30;;;;;;;;;;;;;;;21.72;35.88;101967.84;7282544;19;153366;-51
2022/01/31 08:49:57;;;;;;;;;;;;;;;21.69;35.99;101953.53;7281044;19;153349;-52
2022/01/31 08:52:24;;;;;;;;;;;;;;;21.64;35.81;101945.13;7283822;19;152115;-50
2022/01/31 08:54:52;;;;;;;;;;;;;;;21.61;35.70;101945.72;7284253;19;152991;-51
2022/01/31 08:57:19;;;;;;;;;;;;;;;21.55;35.88;101930.00;7281507;19;154140;-50
2022/01/31 08:59:51;;;;;;;;;;;;;;;21.51;35.75;101949.44;7284760;19;152378;-52
2022/01/31 09:02:26;;;;;;;;;;;;;;;21.47;36.23;101973.66;7285271;19;153123;-63
2022/01/31 09:04:53;;;;;;;;;;;;;;;21.42;35.97;101970.03;7289405;19;153961;-50
2022/01/31 09:07:22;;;;;;;;;;;;;;;21.39;35.87;101982.72;7284683;19;152725;-51
2022/01/31 09:09:53;;;;;;;;;;;;;;;21.34;35.97;101979.06;7278926;19;154160;-51
2022/01/31 09:12:22;;;;;;;;;;;;;;;21.31;36.13;101966.41;7275040;19;152463;-50
2022/01/31 09:14:49;;;;;;;;;;;;;;;21.28;36.42;101990.34;7283050;19;153258;-50
2022/01/31 09:17:16;;;;;;;;;;;;;;;21.24;35.88;101988.38;7282734;19;153983;-50
2022/01/31 09:19:43;;;;;;;;;;;;;;;21.20;36.34;102006.97;7282566;19;151839;-50
2022/01/31 09:22:10;;;;;;;;;;;;;;;21.17;36.20;102007.50;7282255;19;152704;-50
2022/01/31 09:24:39;;;;;;;;;;;;;;;21.14;35.84;101997.69;7281781;19;153205;-50
2022/01/31 09:27:07;;;;;;;;;;;;;;;21.11;36.30;102014.28;7291533;19;151856;-57
2022/01/31 09:29:34;;;;;;;;;;;;;;;21.15;35.96;102021.03;7281587;19;153614;-50
2022/01/31 09:32:03;;;;;;;;;;;;;;;21.12;36.28;102016.78;7279799;19;152171;-51
2022/01/31 09:34:31;;;;;;;;;;;;;;;21.14;36.38;102030.59;7282250;19;152632;-51
2022/01/31 09:36:59;;;;;;;;;;;;;;;21.14;36.50;102037.06;7282295;19;153813;-50
2022/01/31 09:39:26;;;;;;;;;;;;;;;21.15;35.97;102035.09;7281132;19;151779;-51
2022/01/31 09:41:56;;;;;;;;;;;;;;;21.16;35.98;102036.78;7284079;19;152716;-50
2022/01/31 09:44:43;;;;;;;;;;;;;;;21.06;31.86;102032.00;7279061;19;152490;-50
2022/01/31 09:49:48;;;;;;;;;;;;;;;21.04;32.37;102016.53;7280460;19;154101;-50
2022/01/31 09:52:15;;;;;;;;;;;;;;;21.07;32.78;102019.63;7287086;19;152044;-50
2022/01/31 09:54:43;;;;;;;;;;;;;;;21.11;33.43;102022.69;7288609;19;153838;-50
2022/01/31 09:57:12;;;;;;;;;;;;;;;21.13;33.28;102024.13;7285841;19;153697;-50
2022/01/31 09:59:39;;;;;;;;;;;;;;;21.15;34.06;102027.50;7287874;19;151934;-50
2022/01/31 10:02:10;;;;;;;;;;;;;;;21.19;34.18;102036.19;7288273;19;152846;-50
2022/01/31 10:04:41;;;;;;;;;;;;;;;21.22;34.15;102044.03;7285505;19;154326;-50
2022/01/31 10:07:08;;;;;;;;;;;;;;;21.26;34.05;102042.34;7284546;19;152047;-50
2022/01/31 10:09:35;;;;;;;;;;;;;;;21.28;34.37;102040.94;7287222;19;153252;-50
2022/01/31 10:12:06;;;;;;;;;;;;;;;21.33;34.14;102022.38;7291877;19;152370;-50
2022/01/31 10:17:20;;;;;;;;;;;;;;;21.38;34.51;102050.47;7284698;19;153431;-50
2022/01/31 10:19:51;;;;;;;;;;;;;;;21.41;34.54;102049.88;7285600;19;151582;-51
2022/01/31 10:22:18;;;;;;;;;;;;;;;21.43;34.65;102065.34;7287201;19;152668;-50
2022/01/31 10:24:46;;;;;;;;;;;;;;;21.44;34.29;102063.38;7284311;19;152178;-50
2022/01/31 10:27:15;;;;;;;;;;;;;;;21.46;34.28;102076.00;7284592;19;151743;-50
2022/01/31 10:29:43;;;;;;;;;;;;;;;21.47;34.69;102074.88;7287731;19;152797;-50
2022/01/31 10:32:12;;;;;;;;;;;;;;;21.49;34.56;102086.66;7292223;19;154473;-50
2022/01/31 10:34:44;;;;;;;;;;;;;;;21.50;34.47;102122.09;7286059;19;153801;-50
2022/01/31 10:37:13;;;;;;;;;;;;;;;21.51;34.08;102111.69;7283657;19;154087;-50
2022/01/31 10:45:26;;;;;;;;;;;;;;;21.50;34.71;102110.84;7284291;19;153973;-50
2022/01/31 10:53:10;;;;;;;;;;;;;;;21.51;34.46;102118.16;7280591;19;153725;-50
2022/01/31 10:55:37;;;;;;;;;;;;;;;21.50;34.83;102122.09;7295486;19;152108;-50
2022/01/31 10:58:06;;;;;;;;;;;;;;;21.51;34.91;102129.41;7283963;19;153319;-50
2022/01/31 11:00:37;;;;;;;;;;;;;;;21.51;34.81;102120.97;7284463;19;152004;-50
2022/01/31 11:03:14;;;;;;;;;;;;;;;21.49;34.39;102117.59;7283597;19;153500;-50
2022/01/31 11:05:41;;;;;;;;;;;;;;;21.50;34.96;102122.09;7285340;19;153330;-50
2022/01/31 11:08:13;;;;;;;;;;;;;;;21.50;34.89;102102.41;7285229;19;152019;-49
2022/01/31 11:10:40;;;;;;;;;;;;;;;21.53;35.16;102093.41;7284907;19;153327;-50
2022/01/31 11:13:08;;;;;;;;;;;;;;;21.52;35.12;102108.63;7282180;19;153342;-50
2022/01/31 11:15:37;;;;;;;;;;;;;;;21.52;34.99;102111.44;7285097;19;152337;-49
2022/01/31 11:18:06;;;;;;;;;;;;;;;21.53;35.36;102109.47;7289362;19;153295;-49
2022/01/31 11:20:33;;;;;;;;;;;;;;;21.53;35.31;102121.53;7286723;19;151958;-49
2022/01/31 11:23:01;;;;;;;;;;;;;;;21.53;35.68;102123.53;7284931;19;153408;-49
2022/01/31 11:25:28;;;;;;;;;;;;;;;21.53;35.78;102138.41;7284123;19;153290;-50
2022/01/31 11:27:58;;;;;;;;;;;;;;;21.52;35.58;102156.41;7284023;19;152349;-49
2022/01/31 11:30:25;;;;;;;;;;;;;;;21.51;35.61;102162.31;7283683;19;154009;-49
2022/01/31 11:32:53;;;;;;;;;;;;;;;21.51;35.63;102168.78;7285495;19;153373;-49
2022/01/31 11:35:21;;;;;;;;;;;;;;;21.50;35.64;102160.63;7286041;19;151799;-49
2022/01/31 11:37:49;;;;;;;;;;;;;;;21.48;35.49;102168.53;7283921;19;153382;-50
2022/01/31 11:40:16;;;;;;;;;;;;;;;21.50;35.79;102166.25;7291995;19;152684;-50
2022/01/31 11:42:44;;;;;;;;;;;;;;;21.49;35.52;102167.38;7284622;19;152709;-50
2022/01/31 11:45:15;;;;;;;;;;;;;;;21.49;35.78;102189.88;7283910;19;155225;-49
2022/01/31 11:47:45;;;;;;;;;;;;;;;21.46;35.51;102182.84;7283628;19;151852;-49
2022/01/31 11:50:15;;;;;;;;;;;;;;;21.43;36.27;102185.41;7284579;19;153657;-48
2022/01/31 11:52:47;;;;;;;;;;;;;;;21.43;35.89;102188.22;7279694;19;153735;-49
2022/01/31 11:55:16;;;;;;;;;;;;;;;21.43;36.31;102183.44;7282621;19;152300;-50
2022/01/31 11:57:45;;;;;;;;;;;;;;;21.46;36.15;102191.28;7285481;19;152127;-50
2022/01/31 12:00:14;;;;;;;;;;;;;;;21.43;35.88;102189.06;7279380;19;152828;-50
2022/01/31 12:02:42;;;;;;;;;;;;;;;21.42;35.47;102212.69;7292035;19;151624;-50
2022/01/31 12:05:11;;;;;;;;;;;;;;;21.36;35.36;102204.53;7282985;19;153981;-50
2022/01/31 12:07:43;;;;;;;;;;;;;;;21.35;35.26;102212.09;7282906;19;151975;-50
2022/01/31 12:10:19;;;;;;;;;;;;;;;21.32;35.06;102200.59;7283087;19;153263;-50
2022/01/31 12:12:51;;;;;;;;;;;;;;;21.29;35.09;102186.00;7278973;19;153326;-50
2022/01/31 12:15:36;;;;;;;;;;;;;;;21.26;34.57;102199.75;7284879;19;152160;-50
2022/01/31 12:18:24;;;;;;;;;;;;;;;21.21;34.75;102196.97;7284074;19;152357;-50
2022/01/31 12:23:29;;;;;;;;;;;;;;;21.17;35.09;102193.00;7289486;19;151737;-49
2022/01/31 12:25:56;;;;;;;;;;;;;;;21.15;35.09;102192.47;7284452;19;154219;-49
2022/01/31 12:28:33;;;;;;;;;;;;;;;21.11;35.28;102186.53;7284536;19;151948;-49
2022/01/31 12:31:19;;;;;;;;;;;;;;;21.10;35.61;102193.28;7283758;19;152680;-49
2022/01/31 12:33:47;;;;;;;;;;;;;;;21.10;35.92;102189.63;7280556;19;153384;-50
2022/01/31 12:36:25;;;;;;;;;;;;;;;21.07;36.09;102187.41;7281561;19;151687;-49
2022/01/31 12:38:52;;;;;;;;;;;;;;;21.06;36.26;102186.53;7283250;19;152016;-49
2022/01/31 12:41:29;;;;;;;;;;;;;;;21.05;36.26;102190.47;7280596;19;152968;-49
2022/01/31 12:44:06;;;;;;;;;;;;;;;21.04;36.31;102187.94;7281097;19;152426;-49
2022/01/31 12:46:33;;;;;;;;;;;;;;;21.06;35.71;102194.13;7288462;19;153591;-51
2022/01/31 12:49:10;;;;;;;;;;;;;;;21.04;35.55;102194.41;7276418;19;152445;-51
2022/01/31 12:51:47;;;;;;;;;;;;;;;21.04;35.21;102191.59;7278053;19;153165;-50
2022/01/31 12:54:20;;;;;;;;;;;;;;;21.00;34.84;102196.09;7276798;19;153992;-50
2022/01/31 12:56:47;;;;;;;;;;;;;;;20.96;34.81;102192.16;7283433;19;151788;-50
2022/01/31 12:59:15;;;;;;;;;;;;;;;20.94;35.16;102190.78;7281522;19;153079;-49